sensor_id;sensor_type;location;lat;lon;timestamp;pressure;altitude;pressure_sealevel;temperature;humidity
49813;BME280;35706;52.100;5.056;2023-01-28T00:00:19;103068.25;;;3.92;81.12
49813;BME280;35706;52.100;5.056;2023-01-28T00:01:19;103069.19;;;3.90;81.05
49813;BME280;35706;52.100;5.056;2023-01-28T00:02:23;103070.06;;;3.88;81.00
49813;BME280;35706;52.100;5.056;2023-01-28T00:03:23;103064.84;;;3.90;80.95
49813;BME280;35706;52.100;5.056;2023-01-28T00:04:24;103064.84;;;3.90;81.10
49813;BME280;35706;52.100;5.056;2023-01-28T00:05:24;103067.47;;;3.88;81.12
49813;BME280;35706;52.100;5.056;2023-01-28T00:06:30;103076.88;;;3.94;80.38
49813;BME280;35706;52.100;5.056;2023-01-28T00:07:30;103077.88;;;3.88;80.68
49813;BME280;35706;52.100;5.056;2023-01-28T00:08:31;103074.41;;;3.88;80.68
49813;BME280;35706;52.100;5.056;2023-01-28T00:09:32;103076.81;;;3.96;81.02
49813;BME280;35706;52.100;5.056;2023-01-28T00:10:33;103075.84;;;4.00;81.02
49813;BME280;35706;52.100;5.056;2023-01-28T00:11:33;103075.75;;;4.04;81.17
49813;BME280;35706;52.100;5.056;2023-01-28T00:12:33;103081.13;;;3.98;80.60
49813;BME280;35706;52.100;5.056;2023-01-28T00:13:34;103077.63;;;3.98;80.84
49813;BME280;35706;52.100;5.056;2023-01-28T00:14:34;103081.97;;;3.99;80.93
49813;BME280;35706;52.100;5.056;2023-01-28T00:15:35;103078.56;;;3.95;81.28
49813;BME280;35706;52.100;5.056;2023-01-28T00:16:35;103075.94;;;3.97;82.46
49813;BME280;35706;52.100;5.056;2023-01-28T00:17:36;103077.63;;;3.98;81.90
49813;BME280;35706;52.100;5.056;2023-01-28T00:18:37;103085.44;;;3.98;81.88
49813;BME280;35706;52.100;5.056;2023-01-28T00:19:40;103080.16;;;4.02;82.30
49813;BME280;35706;52.100;5.056;2023-01-28T00:20:43;103075.00;;;3.99;82.27
49813;BME280;35706;52.100;5.056;2023-01-28T00:21:44;103074.94;;;4.02;82.04
49813;BME280;35706;52.100;5.056;2023-01-28T00:22:48;103081.66;;;4.11;82.00
49813;BME280;35706;52.100;5.056;2023-01-28T00:23:53;103075.63;;;4.09;81.62
49813;BME280;35706;52.100;5.056;2023-01-28T00:24:54;103068.91;;;4.00;81.34
49813;BME280;35706;52.100;5.056;2023-01-28T00:25:57;103074.03;;;4.03;81.34
49813;BME280;35706;52.100;5.056;2023-01-28T00:26:58;103073.09;;;4.06;81.32
49813;BME280;35706;52.100;5.056;2023-01-28T00:27:59;103073.06;;;4.07;81.64
49813;BME280;35706;52.100;5.056;2023-01-28T00:28:59;103073.97;;;4.06;81.32
49813;BME280;35706;52.100;5.056;2023-01-28T00:30:00;103074.13;;;4.00;81.48
49813;BME280;35706;52.100;5.056;2023-01-28T00:32:11;103075.25;;;3.90;81.97
49813;BME280;35706;52.100;5.056;2023-01-28T00:33:12;103075.81;;;4.01;81.04
49813;BME280;35706;52.100;5.056;2023-01-28T00:34:12;103078.41;;;4.01;81.48
49813;BME280;35706;52.100;5.056;2023-01-28T00:35:13;103082.22;;;3.88;80.97
49813;BME280;35706;52.100;5.056;2023-01-28T00:36:14;103069.94;;;3.93;80.89
49813;BME280;35706;52.100;5.056;2023-01-28T00:37:15;103074.47;;;3.85;80.94
49813;BME280;35706;52.100;5.056;2023-01-28T00:38:15;103072.78;;;3.84;80.39
49813;BME280;35706;52.100;5.056;2023-01-28T00:39:15;103076.38;;;3.78;80.30
49813;BME280;35706;52.100;5.056;2023-01-28T00:40:16;103071.16;;;3.80;80.37
49813;BME280;35706;52.100;5.056;2023-01-28T00:41:18;103074.44;;;3.86;80.39
49813;BME280;35706;52.100;5.056;2023-01-28T00:42:21;103064.16;;;3.82;80.98
49813;BME280;35706;52.100;5.056;2023-01-28T00:43:21;103070.41;;;3.75;80.68
49813;BME280;35706;52.100;5.056;2023-01-28T00:44:21;103065.84;;;3.83;80.70
49813;BME280;35706;52.100;5.056;2023-01-28T00:45:22;103063.09;;;3.89;80.84
49813;BME280;35706;52.100;5.056;2023-01-28T00:46:23;103071.97;;;3.82;80.09
49813;BME280;35706;52.100;5.056;2023-01-28T00:47:25;103068.00;;;3.67;80.25
49813;BME280;35706;52.100;5.056;2023-01-28T00:48:25;103074.03;;;3.67;80.71
49813;BME280;35706;52.100;5.056;2023-01-28T00:49:26;103077.22;;;3.79;81.22
49813;BME280;35706;52.100;5.056;2023-01-28T00:50:26;103081.53;;;3.81;81.13
49813;BME280;35706;52.100;5.056;2023-01-28T00:51:28;103078.69;;;3.91;81.75
49813;BME280;35706;52.100;5.056;2023-01-28T00:52:28;103077.72;;;3.95;81.10
49813;BME280;35706;52.100;5.056;2023-01-28T00:53:29;103078.69;;;3.91;81.31
49813;BME280;35706;52.100;5.056;2023-01-28T00:54:30;103071.72;;;3.91;81.63
49813;BME280;35706;52.100;5.056;2023-01-28T00:55:31;103070.09;;;3.87;81.41
49813;BME280;35706;52.100;5.056;2023-01-28T00:56:31;103067.59;;;3.84;81.55
49813;BME280;35706;52.100;5.056;2023-01-28T00:57:32;103073.06;;;3.73;80.64
49813;BME280;35706;52.100;5.056;2023-01-28T00:58:33;103074.03;;;3.67;81.16
49813;BME280;35706;52.100;5.056;2023-01-28T00:59:33;103076.53;;;3.72;81.44
49813;BME280;35706;52.100;5.056;2023-01-28T01:00:33;103065.28;;;3.72;81.59
49813;BME280;35706;52.100;5.056;2023-01-28T01:01:34;103069.38;;;3.82;81.37
49813;BME280;35706;52.100;5.056;2023-01-28T01:02:34;103069.28;;;3.85;81.47
49813;BME280;35706;52.100;5.056;2023-01-28T01:03:35;103065.84;;;3.83;81.12
49813;BME280;35706;52.100;5.056;2023-01-28T01:04:35;103070.25;;;3.81;81.41
49813;BME280;35706;52.100;5.056;2023-01-28T01:05:36;103063.19;;;3.86;81.18
49813;BME280;35706;52.100;5.056;2023-01-28T01:06:38;103075.22;;;3.92;81.11
49813;BME280;35706;52.100;5.056;2023-01-28T01:07:39;103059.00;;;3.80;80.82
49813;BME280;35706;52.100;5.056;2023-01-28T01:08:43;103071.16;;;3.80;81.59
49813;BME280;35706;52.100;5.056;2023-01-28T01:09:49;103069.44;;;3.79;81.20
49813;BME280;35706;52.100;5.056;2023-01-28T01:10:49;103066.94;;;3.74;80.72
49813;BME280;35706;52.100;5.056;2023-01-28T01:11:50;103070.19;;;3.84;80.74
49813;BME280;35706;52.100;5.056;2023-01-28T01:12:50;103069.25;;;3.86;80.55
49813;BME280;35706;52.100;5.056;2023-01-28T01:13:55;103067.31;;;3.95;80.21
49813;BME280;35706;52.100;5.056;2023-01-28T01:14:56;103065.69;;;3.91;80.24
49813;BME280;35706;52.100;5.056;2023-01-28T01:16:11;103067.50;;;3.87;81.06
49813;BME280;35706;52.100;5.056;2023-01-28T01:17:12;103066.78;;;3.80;81.77
49813;BME280;35706;52.100;5.056;2023-01-28T01:18:12;103073.50;;;3.89;81.10
49813;BME280;35706;52.100;5.056;2023-01-28T01:19:13;103068.66;;;3.75;81.24
49813;BME280;35706;52.100;5.056;2023-01-28T01:20:22;103071.03;;;3.84;82.05
49813;BME280;35706;52.100;5.056;2023-01-28T01:21:25;103069.38;;;3.82;81.87
49813;BME280;35706;52.100;5.056;2023-01-28T01:22:26;103058.00;;;3.86;81.89
49813;BME280;35706;52.100;5.056;2023-01-28T01:23:28;103065.03;;;3.81;81.73
49813;BME280;35706;52.100;5.056;2023-01-28T01:24:29;103062.38;;;3.84;81.04
49813;BME280;35706;52.100;5.056;2023-01-28T01:25:32;103068.53;;;3.81;80.93
49813;BME280;35706;52.100;5.056;2023-01-28T01:26:33;103065.66;;;3.92;80.83
49813;BME280;35706;52.100;5.056;2023-01-28T01:27:34;103066.50;;;3.93;80.80
49813;BME280;35706;52.100;5.056;2023-01-28T01:28:35;103074.53;;;3.83;81.12
49813;BME280;35706;52.100;5.056;2023-01-28T01:29:36;103062.44;;;3.81;81.61
49813;BME280;35706;52.100;5.056;2023-01-28T01:30:36;103066.03;;;3.77;81.63
49813;BME280;35706;52.100;5.056;2023-01-28T01:31:37;103066.81;;;3.79;81.34
49813;BME280;35706;52.100;5.056;2023-01-28T01:32:37;103075.56;;;3.76;81.11
49813;BME280;35706;52.100;5.056;2023-01-28T01:33:38;103072.19;;;3.73;81.24
49813;BME280;35706;52.100;5.056;2023-01-28T01:34:41;103074.63;;;3.79;81.65
49813;BME280;35706;52.100;5.056;2023-01-28T01:35:42;103074.59;;;3.80;81.38
49813;BME280;35706;52.100;5.056;2023-01-28T01:36:42;103077.97;;;3.85;81.31
49813;BME280;35706;52.100;5.056;2023-01-28T01:37:45;103067.63;;;3.81;81.20
49813;BME280;35706;52.100;5.056;2023-01-28T01:38:46;103068.56;;;3.80;80.97
49813;BME280;35706;52.100;5.056;2023-01-28T01:39:46;103074.72;;;3.76;80.78
49813;BME280;35706;52.100;5.056;2023-01-28T01:40:47;103067.84;;;3.73;81.17
49813;BME280;35706;52.100;5.056;2023-01-28T01:41:47;103072.34;;;3.66;81.25
49813;BME280;35706;52.100;5.056;2023-01-28T01:42:47;103067.19;;;3.63;81.16
49813;BME280;35706;52.100;5.056;2023-01-28T01:43:54;103075.66;;;3.73;81.71
49813;BME280;35706;52.100;5.056;2023-01-28T01:45:06;103076.25;;;3.83;81.69
49813;BME280;35706;52.100;5.056;2023-01-28T01:46:06;103077.22;;;3.79;80.97
49813;BME280;35706;52.100;5.056;2023-01-28T01:47:07;103078.25;;;3.73;80.98
49813;BME280;35706;52.100;5.056;2023-01-28T01:48:15;103076.22;;;3.86;81.09
49813;BME280;35706;52.100;5.056;2023-01-28T01:49:24;103081.53;;;3.81;81.52
49813;BME280;35706;52.100;5.056;2023-01-28T01:50:33;103078.03;;;3.82;80.64
49813;BME280;35706;52.100;5.056;2023-01-28T01:51:38;103092.75;;;3.83;81.02
49813;BME280;35706;52.100;5.056;2023-01-28T01:52:39;103088.38;;;3.85;80.99
49813;BME280;35706;52.100;5.056;2023-01-28T01:53:45;103086.66;;;3.83;80.64
49813;BME280;35706;52.100;5.056;2023-01-28T01:54:50;103086.75;;;3.80;80.85
49813;BME280;35706;52.100;5.056;2023-01-28T01:55:55;103092.84;;;3.79;80.90
49813;BME280;35706;52.100;5.056;2023-01-28T01:56:56;103089.28;;;3.83;81.42
49813;BME280;35706;52.100;5.056;2023-01-28T01:58:05;103085.81;;;3.82;81.42
49813;BME280;35706;52.100;5.056;2023-01-28T01:59:11;103087.72;;;3.76;81.07
49813;BME280;35706;52.100;5.056;2023-01-28T02:00:12;103084.19;;;3.78;81.08
49813;BME280;35706;52.100;5.056;2023-01-28T02:01:15;103079.03;;;3.77;80.77
49813;BME280;35706;52.100;5.056;2023-01-28T02:02:17;103083.44;;;3.75;80.96
49813;BME280;35706;52.100;5.056;2023-01-28T02:03:25;103078.13;;;3.78;80.89
49813;BME280;35706;52.100;5.056;2023-01-28T02:04:30;103079.06;;;3.75;81.01
49813;BME280;35706;52.100;5.056;2023-01-28T02:05:31;103081.53;;;3.81;81.06
49813;BME280;35706;52.100;5.056;2023-01-28T02:06:33;103074.72;;;3.76;81.15
49813;BME280;35706;52.100;5.056;2023-01-28T02:07:35;103080.72;;;3.79;81.38
49813;BME280;35706;52.100;5.056;2023-01-28T02:08:35;103076.47;;;3.75;81.15
49813;BME280;35706;52.100;5.056;2023-01-28T02:09:36;103072.94;;;3.78;80.79
49813;BME280;35706;52.100;5.056;2023-01-28T02:10:37;103075.53;;;3.78;80.42
49813;BME280;35706;52.100;5.056;2023-01-28T02:11:37;103083.47;;;3.72;80.08
49813;BME280;35706;52.100;5.056;2023-01-28T02:12:49;103078.25;;;3.73;80.09
49813;BME280;35706;52.100;5.056;2023-01-28T02:13:57;103075.81;;;3.65;79.29
49813;BME280;35706;52.100;5.056;2023-01-28T02:15:06;103076.84;;;3.60;80.42
49813;BME280;35706;52.100;5.056;2023-01-28T02:16:08;103079.63;;;3.52;79.97
49813;BME280;35706;52.100;5.056;2023-01-28T02:17:09;103073.38;;;3.59;79.67
49813;BME280;35706;52.100;5.056;2023-01-28T02:18:09;103083.59;;;3.67;79.85
49813;BME280;35706;52.100;5.056;2023-01-28T02:19:11;103082.53;;;3.76;79.56
49813;BME280;35706;52.100;5.056;2023-01-28T02:20:13;103080.09;;;3.68;79.13
49813;BME280;35706;52.100;5.056;2023-01-28T02:21:44;103081.84;;;3.67;79.79
49813;BME280;35706;52.100;5.056;2023-01-28T02:24:08;103092.53;;;3.55;78.68
49813;BME280;35706;52.100;5.056;2023-01-28T02:29:35;103090.97;;;3.48;79.55
49813;BME280;35706;52.100;5.056;2023-01-28T02:30:45;103094.38;;;3.52;79.64
49813;BME280;35706;52.100;5.056;2023-01-28T02:31:54;103090.84;;;3.54;79.32
49813;BME280;35706;52.100;5.056;2023-01-28T02:33:04;103091.41;;;3.67;79.91
49813;BME280;35706;52.100;5.056;2023-01-28T02:35:47;103102.66;;;3.67;78.76
49813;BME280;35706;52.100;5.056;2023-01-28T02:36:53;103106.44;;;3.54;78.81
49813;BME280;35706;52.100;5.056;2023-01-28T02:38:08;103100.38;;;3.54;79.57
49813;BME280;35706;52.100;5.056;2023-01-28T02:39:25;103105.63;;;3.52;78.86
49813;BME280;35706;52.100;5.056;2023-01-28T02:40:29;103107.53;;;3.44;79.04
49813;BME280;35706;52.100;5.056;2023-01-28T02:41:41;103098.69;;;3.51;79.18
49813;BME280;35706;52.100;5.056;2023-01-28T02:42:45;103102.88;;;3.58;79.11
49813;BME280;35706;52.100;5.056;2023-01-28T02:43:46;103098.63;;;3.54;79.14
49813;BME280;35706;52.100;5.056;2023-01-28T02:44:46;103097.69;;;3.58;79.06
49813;BME280;35706;52.100;5.056;2023-01-28T02:45:47;103099.38;;;3.59;78.82
49813;BME280;35706;52.100;5.056;2023-01-28T02:47:10;103099.34;;;3.61;77.92
49813;BME280;35706;52.100;5.056;2023-01-28T02:48:29;103099.63;;;3.49;77.32
49813;BME280;35706;52.100;5.056;2023-01-28T02:49:38;103097.41;;;3.30;77.66
49813;BME280;35706;52.100;5.056;2023-01-28T02:50:56;103095.50;;;3.38;78.28
49813;BME280;35706;52.100;5.056;2023-01-28T02:54:00;103091.72;;;3.53;77.08
49813;BME280;35706;52.100;5.056;2023-01-28T02:55:11;103089.09;;;3.53;78.04
49813;BME280;35706;52.100;5.056;2023-01-28T02:58:37;103073.63;;;3.47;78.31
49813;BME280;35706;52.100;5.056;2023-01-28T02:59:50;103079.66;;;3.49;78.10
49813;BME280;35706;52.100;5.056;2023-01-28T03:01:15;103080.44;;;3.54;77.46
49813;BME280;35706;52.100;5.056;2023-01-28T03:04:57;103081.88;;;3.29;77.16
49813;BME280;35706;52.100;5.056;2023-01-28T03:06:04;103084.41;;;3.30;77.21
49813;BME280;35706;52.100;5.056;2023-01-28T03:07:08;103088.53;;;3.40;77.51
49813;BME280;35706;52.100;5.056;2023-01-28T03:08:10;103091.09;;;3.43;77.37
49813;BME280;35706;52.100;5.056;2023-01-28T03:09:30;103078.94;;;3.44;76.94
49813;BME280;35706;52.100;5.056;2023-01-28T03:10:31;103085.75;;;3.50;78.19
49813;BME280;35706;52.100;5.056;2023-01-28T03:11:35;103090.06;;;3.49;78.02
49813;BME280;35706;52.100;5.056;2023-01-28T03:12:58;103083.22;;;3.45;77.69
49813;BME280;35706;52.100;5.056;2023-01-28T03:14:18;103088.38;;;3.48;77.80
49813;BME280;35706;52.100;5.056;2023-01-28T03:15:45;103093.53;;;3.50;76.79
49813;BME280;35706;52.100;5.056;2023-01-28T03:17:08;103084.84;;;3.51;76.66
49813;BME280;35706;52.100;5.056;2023-01-28T03:18:37;103091.09;;;3.43;76.56
49813;BME280;35706;52.100;5.056;2023-01-28T03:19:57;103079.78;;;3.44;77.44
49813;BME280;35706;52.100;5.056;2023-01-28T03:21:21;103080.56;;;3.48;77.70
49813;BME280;35706;52.100;5.056;2023-01-28T03:22:46;103082.25;;;3.51;77.42
49813;BME280;35706;52.100;5.056;2023-01-28T03:24:20;103079.63;;;3.52;76.96
49813;BME280;35706;52.100;5.056;2023-01-28T03:25:43;103080.34;;;3.57;77.38
49813;BME280;35706;52.100;5.056;2023-01-28T03:27:15;103082.91;;;3.59;77.13
49813;BME280;35706;52.100;5.056;2023-01-28T03:28:37;103089.78;;;3.61;77.80
49813;BME280;35706;52.100;5.056;2023-01-28T03:30:00;103088.84;;;3.64;77.94
49813;BME280;35706;52.100;5.056;2023-01-28T03:31:21;103089.03;;;3.58;77.29
49813;BME280;35706;52.100;5.056;2023-01-28T03:32:42;103090.75;;;3.57;76.77
49813;BME280;35706;52.100;5.056;2023-01-28T03:34:02;103090.63;;;3.62;77.01
49813;BME280;35706;52.100;5.056;2023-01-28T03:35:23;103082.94;;;3.57;76.63
49813;BME280;35706;52.100;5.056;2023-01-28T03:36:45;103088.03;;;3.62;77.25
49813;BME280;35706;52.100;5.056;2023-01-28T03:37:48;103086.22;;;3.65;77.09
49813;BME280;35706;52.100;5.056;2023-01-28T03:38:49;103085.41;;;3.63;77.69
49813;BME280;35706;52.100;5.056;2023-01-28T03:39:50;103088.97;;;3.59;77.24
49813;BME280;35706;52.100;5.056;2023-01-28T03:42:13;103087.31;;;3.55;77.26
49813;BME280;35706;52.100;5.056;2023-01-28T03:43:13;103083.06;;;3.53;77.13
49813;BME280;35706;52.100;5.056;2023-01-28T03:44:13;103086.56;;;3.52;77.67
49813;BME280;35706;52.100;5.056;2023-01-28T03:45:33;103085.66;;;3.53;77.80
49813;BME280;35706;52.100;5.056;2023-01-28T03:46:34;103085.66;;;3.53;77.65
49813;BME280;35706;52.100;5.056;2023-01-28T03:47:37;103075.25;;;3.53;76.72
49813;BME280;35706;52.100;5.056;2023-01-28T03:48:39;103078.81;;;3.49;76.37
49813;BME280;35706;52.100;5.056;2023-01-28T03:49:44;103081.50;;;3.45;76.50
49813;BME280;35706;52.100;5.056;2023-01-28T03:50:46;103073.72;;;3.44;78.14
49813;BME280;35706;52.100;5.056;2023-01-28T03:51:47;103084.88;;;3.49;77.91
49813;BME280;35706;52.100;5.056;2023-01-28T03:52:47;103083.19;;;3.46;76.94
49813;BME280;35706;52.100;5.056;2023-01-28T03:53:47;103084.03;;;3.49;77.01
49813;BME280;35706;52.100;5.056;2023-01-28T03:54:48;103081.50;;;3.45;76.30
49813;BME280;35706;52.100;5.056;2023-01-28T03:55:50;103090.94;;;3.50;76.69
49813;BME280;35706;52.100;5.056;2023-01-28T03:56:50;103092.75;;;3.46;76.93
49813;BME280;35706;52.100;5.056;2023-01-28T03:57:50;103093.69;;;3.43;76.78
49813;BME280;35706;52.100;5.056;2023-01-28T03:58:51;103089.25;;;3.47;77.02
49813;BME280;35706;52.100;5.056;2023-01-28T03:59:53;103091.66;;;3.56;76.82
49813;BME280;35706;52.100;5.056;2023-01-28T04:00:53;103100.31;;;3.57;76.80
49813;BME280;35706;52.100;5.056;2023-01-28T04:01:54;103100.34;;;3.55;77.27
49813;BME280;35706;52.100;5.056;2023-01-28T04:02:54;103095.94;;;3.59;76.14
49813;BME280;35706;52.100;5.056;2023-01-28T04:03:54;103092.44;;;3.60;76.42
49813;BME280;35706;52.100;5.056;2023-01-28T04:04:55;103097.69;;;3.57;77.01
49813;BME280;35706;52.100;5.056;2023-01-28T04:06:05;103089.06;;;3.56;77.11
49813;BME280;35706;52.100;5.056;2023-01-28T04:07:10;103097.72;;;3.55;76.84
49813;BME280;35706;52.100;5.056;2023-01-28T04:08:12;103096.00;;;3.56;77.12
49813;BME280;35706;52.100;5.056;2023-01-28T04:09:12;103093.47;;;3.53;76.91
49813;BME280;35706;52.100;5.056;2023-01-28T04:10:12;103101.25;;;3.53;77.16
49813;BME280;35706;52.100;5.056;2023-01-28T04:11:13;103094.63;;;3.41;77.14
49813;BME280;35706;52.100;5.056;2023-01-28T04:12:19;103096.19;;;3.46;77.53
49813;BME280;35706;52.100;5.056;2023-01-28T04:13:19;103092.63;;;3.51;77.58
49813;BME280;35706;52.100;5.056;2023-01-28T04:14:20;103099.63;;;3.49;76.98
49813;BME280;35706;52.100;5.056;2023-01-28T04:15:20;103096.38;;;3.39;77.52
49813;BME280;35706;52.100;5.056;2023-01-28T04:16:21;103100.63;;;3.43;78.00
49813;BME280;35706;52.100;5.056;2023-01-28T04:17:22;103105.75;;;3.46;77.95
49813;BME280;35706;52.100;5.056;2023-01-28T04:18:23;103101.47;;;3.43;77.96
49813;BME280;35706;52.100;5.056;2023-01-28T04:19:27;103106.53;;;3.50;77.25
49813;BME280;35706;52.100;5.056;2023-01-28T04:20:27;103105.78;;;3.44;76.55
49813;BME280;35706;52.100;5.056;2023-01-28T04:21:28;103105.88;;;3.40;77.04
49813;BME280;35706;52.100;5.056;2023-01-28T04:22:28;103115.41;;;3.41;76.32
49813;BME280;35706;52.100;5.056;2023-01-28T04:23:28;103120.91;;;3.27;77.06
49813;BME280;35706;52.100;5.056;2023-01-28T04:24:28;103120.03;;;3.26;77.26
49813;BME280;35706;52.100;5.056;2023-01-28T04:25:30;103133.06;;;3.25;77.31
49813;BME280;35706;52.100;5.056;2023-01-28T04:26:30;103127.66;;;3.34;77.11
49813;BME280;35706;52.100;5.056;2023-01-28T04:27:31;103121.13;;;3.16;77.35
49813;BME280;35706;52.100;5.056;2023-01-28T04:28:31;103123.69;;;3.18;77.71
49813;BME280;35706;52.100;5.056;2023-01-28T04:29:31;103117.50;;;3.23;77.18
49813;BME280;35706;52.100;5.056;2023-01-28T04:30:32;103120.91;;;3.27;77.26
49813;BME280;35706;52.100;5.056;2023-01-28T04:31:32;103121.94;;;3.20;77.69
49813;BME280;35706;52.100;5.056;2023-01-28T04:32:33;103120.16;;;3.20;77.66
49813;BME280;35706;52.100;5.056;2023-01-28T04:33:33;103123.84;;;3.10;77.99
49813;BME280;35706;52.100;5.056;2023-01-28T04:34:33;103125.41;;;3.17;78.22
49813;BME280;35706;52.100;5.056;2023-01-28T04:35:33;103130.56;;;3.20;78.12
49813;BME280;35706;52.100;5.056;2023-01-28T04:36:34;103126.19;;;3.22;78.40
49813;BME280;35706;52.100;5.056;2023-01-28T04:37:34;103129.66;;;3.23;77.24
49813;BME280;35706;52.100;5.056;2023-01-28T04:38:34;103130.53;;;3.22;77.13
49813;BME280;35706;52.100;5.056;2023-01-28T04:39:35;103121.81;;;3.24;77.57
49813;BME280;35706;52.100;5.056;2023-01-28T04:40:35;103123.47;;;3.29;78.56
49813;BME280;35706;52.100;5.056;2023-01-28T04:41:35;103121.94;;;3.20;77.10
49813;BME280;35706;52.100;5.056;2023-01-28T04:42:35;103123.63;;;3.21;78.94
49813;BME280;35706;52.100;5.056;2023-01-28T04:43:36;103132.22;;;3.24;78.13
49813;BME280;35706;52.100;5.056;2023-01-28T04:44:36;103120.81;;;3.30;78.71
49813;BME280;35706;52.100;5.056;2023-01-28T04:45:36;103122.47;;;3.34;78.30
49813;BME280;35706;52.100;5.056;2023-01-28T04:46:37;103118.91;;;3.38;78.04
49813;BME280;35706;52.100;5.056;2023-01-28T04:47:37;103115.34;;;3.42;77.67
49813;BME280;35706;52.100;5.056;2023-01-28T04:48:37;103111.94;;;3.40;77.95
49813;BME280;35706;52.100;5.056;2023-01-28T04:49:37;103108.72;;;3.29;76.65
49813;BME280;35706;52.100;5.056;2023-01-28T04:50:38;103111.44;;;3.23;76.96
49813;BME280;35706;52.100;5.056;2023-01-28T04:51:38;103113.94;;;3.28;77.08
49813;BME280;35706;52.100;5.056;2023-01-28T04:52:38;103106.09;;;3.31;76.99
49813;BME280;35706;52.100;5.056;2023-01-28T04:53:39;103106.97;;;3.30;76.98
49813;BME280;35706;52.100;5.056;2023-01-28T04:54:39;103106.88;;;3.34;76.92
49813;BME280;35706;52.100;5.056;2023-01-28T04:55:39;103102.53;;;3.35;76.76
49813;BME280;35706;52.100;5.056;2023-01-28T04:56:40;103106.09;;;3.31;76.32
49813;BME280;35706;52.100;5.056;2023-01-28T04:57:40;103105.38;;;3.24;77.09
49813;BME280;35706;52.100;5.056;2023-01-28T04:58:40;103103.59;;;3.26;77.63
49813;BME280;35706;52.100;5.056;2023-01-28T04:59:41;103113.00;;;3.32;77.13
49813;BME280;35706;52.100;5.056;2023-01-28T05:00:41;103110.41;;;3.30;77.01
49813;BME280;35706;52.100;5.056;2023-01-28T05:01:41;103102.69;;;3.29;76.89
49813;BME280;35706;52.100;5.056;2023-01-28T05:02:42;103108.06;;;3.19;76.54
49813;BME280;35706;52.100;5.056;2023-01-28T05:03:42;103104.25;;;3.36;78.54
49813;BME280;35706;52.100;5.056;2023-01-28T05:04:42;103110.56;;;3.24;77.22
49813;BME280;35706;52.100;5.056;2023-01-28T05:05:43;103108.56;;;3.37;77.24
49813;BME280;35706;52.100;5.056;2023-01-28T05:06:43;103105.16;;;3.35;76.96
49813;BME280;35706;52.100;5.056;2023-01-28T05:07:46;103107.63;;;3.41;77.76
49813;BME280;35706;52.100;5.056;2023-01-28T05:08:49;103104.94;;;3.44;77.42
49813;BME280;35706;52.100;5.056;2023-01-28T05:09:49;103110.13;;;3.44;78.31
49813;BME280;35706;52.100;5.056;2023-01-28T05:10:49;103103.97;;;3.48;78.21
49813;BME280;35706;52.100;5.056;2023-01-28T05:11:50;103103.81;;;3.56;77.77
49813;BME280;35706;52.100;5.056;2023-01-28T05:12:50;103108.25;;;3.49;77.03
49813;BME280;35706;52.100;5.056;2023-01-28T05:13:50;103112.50;;;3.53;78.24
49813;BME280;35706;52.100;5.056;2023-01-28T05:14:51;103111.78;;;3.46;77.84
49813;BME280;35706;52.100;5.056;2023-01-28T05:15:52;103114.41;;;3.45;78.03
49813;BME280;35706;52.100;5.056;2023-01-28T05:16:53;103110.16;;;3.42;77.80
49813;BME280;35706;52.100;5.056;2023-01-28T05:17:54;103109.31;;;3.42;77.96
49813;BME280;35706;52.100;5.056;2023-01-28T05:18:56;103107.53;;;3.44;76.94
49813;BME280;35706;52.100;5.056;2023-01-28T05:19:56;103111.09;;;3.40;77.42
49813;BME280;35706;52.100;5.056;2023-01-28T05:20:57;103115.34;;;3.42;77.07
49813;BME280;35706;52.100;5.056;2023-01-28T05:21:57;103110.03;;;3.47;76.95
49813;BME280;35706;52.100;5.056;2023-01-28T05:22:57;103120.31;;;3.53;76.96
49813;BME280;35706;52.100;5.056;2023-01-28T05:23:58;103110.03;;;3.49;76.89
49813;BME280;35706;52.100;5.056;2023-01-28T05:24:58;103116.00;;;3.52;77.02
49813;BME280;35706;52.100;5.056;2023-01-28T05:25:58;103109.03;;;3.54;76.93
49813;BME280;35706;52.100;5.056;2023-01-28T05:26:59;103117.00;;;3.46;76.53
49813;BME280;35706;52.100;5.056;2023-01-28T05:27:59;103114.38;;;3.48;76.28
49813;BME280;35706;52.100;5.056;2023-01-28T05:28:59;103116.16;;;3.46;76.89
49813;BME280;35706;52.100;5.056;2023-01-28T05:29:59;103110.94;;;3.46;77.18
49813;BME280;35706;52.100;5.056;2023-01-28T05:31:06;103108.47;;;3.41;76.44
49813;BME280;35706;52.100;5.056;2023-01-28T05:32:06;103108.31;;;3.47;77.38
49813;BME280;35706;52.100;5.056;2023-01-28T05:33:07;103110.81;;;3.52;78.13
49813;BME280;35706;52.100;5.056;2023-01-28T05:34:07;103106.72;;;3.40;77.13
49813;BME280;35706;52.100;5.056;2023-01-28T05:35:08;103115.31;;;3.45;78.06
49813;BME280;35706;52.100;5.056;2023-01-28T05:36:08;103113.56;;;3.44;78.42
49813;BME280;35706;52.100;5.056;2023-01-28T05:37:08;103107.69;;;3.36;76.86
49813;BME280;35706;52.100;5.056;2023-01-28T05:38:09;103112.72;;;3.44;76.63
49813;BME280;35706;52.100;5.056;2023-01-28T05:39:09;103107.63;;;3.41;76.85
49813;BME280;35706;52.100;5.056;2023-01-28T05:40:10;103111.03;;;3.43;76.66
49813;BME280;35706;52.100;5.056;2023-01-28T05:41:10;103109.34;;;3.40;77.01
49813;BME280;35706;52.100;5.056;2023-01-28T05:42:10;103104.22;;;3.37;76.63
49813;BME280;35706;52.100;5.056;2023-01-28T05:43:11;103102.63;;;3.30;76.74
49813;BME280;35706;52.100;5.056;2023-01-28T05:44:11;103107.06;;;3.26;77.23
49813;BME280;35706;52.100;5.056;2023-01-28T05:45:11;103101.03;;;3.24;77.30
49813;BME280;35706;52.100;5.056;2023-01-28T05:46:12;103105.41;;;3.22;77.05
49813;BME280;35706;52.100;5.056;2023-01-28T05:47:12;103104.50;;;3.23;76.85
49813;BME280;35706;52.100;5.056;2023-01-28T05:48:13;103112.34;;;3.22;76.64
49813;BME280;35706;52.100;5.056;2023-01-28T05:49:13;103110.56;;;3.24;77.27
49813;BME280;35706;52.100;5.056;2023-01-28T05:50:17;103110.41;;;3.30;77.02
49813;BME280;35706;52.100;5.056;2023-01-28T05:51:17;103114.72;;;3.33;78.01
49813;BME280;35706;52.100;5.056;2023-01-28T05:52:21;103103.53;;;3.29;77.19
49813;BME280;35706;52.100;5.056;2023-01-28T05:53:21;103105.09;;;3.36;76.87